createdAt,value
2022-10-24T00:01:24.209Z,0.70
2022-10-24T00:04:27.143Z,1.08
2022-10-24T00:07:30.399Z,0.70
2022-10-24T00:10:33.529Z,0.80
2022-10-24T00:13:36.323Z,0.50
2022-10-24T00:16:40.658Z,0.77
2022-10-24T00:19:43.543Z,1.00
2022-10-24T00:22:46.929Z,0.77
2022-10-24T00:25:50.164Z,0.60
2022-10-24T00:28:53.161Z,0.65
2022-10-24T00:31:57.602Z,0.60
2022-10-24T00:35:00.599Z,0.52
2022-10-24T00:38:03.494Z,0.63
2022-10-24T00:41:06.607Z,0.60
2022-10-24T00:44:18.476Z,0.60
2022-10-24T00:47:25.956Z,0.80
2022-10-24T00:50:29.690Z,1.15
2022-10-24T00:53:36.615Z,0.95
2022-10-24T00:56:43.179Z,0.80
2022-10-24T00:59:49.108Z,0.73
2022-10-24T01:02:53.494Z,0.68
2022-10-24T01:06:28.431Z,1.10
2022-10-24T01:09:45.978Z,0.52
2022-10-24T01:12:56.204Z,0.80
2022-10-24T01:16:07.271Z,0.80
2022-10-24T01:19:28.377Z,0.95
2022-10-24T01:22:36.564Z,0.68
2022-10-24T01:25:49.217Z,0.60
2022-10-24T01:29:01.168Z,0.63
2022-10-24T01:32:12.911Z,0.70
2022-10-24T01:35:36.219Z,0.77
2022-10-24T01:38:45.549Z,0.80
2022-10-24T01:41:49.428Z,1.02
2022-10-24T01:44:57.350Z,0.70
2022-10-24T01:48:04.683Z,0.57
2022-10-24T01:51:09.122Z,0.82
2022-10-24T01:54:13.664Z,0.80
2022-10-24T01:57:16.678Z,0.90
2022-10-24T02:00:21.603Z,0.63
2022-10-24T02:03:31.088Z,0.80
2022-10-24T02:06:37.978Z,1.00
2022-10-24T02:09:43.440Z,1.23
2022-10-24T02:13:01.418Z,0.50
2022-10-24T02:16:05.473Z,0.82
2022-10-24T02:19:10.255Z,0.85
2022-10-24T02:22:20.675Z,0.70
2022-10-24T02:25:28.387Z,0.68
2022-10-24T02:28:38.785Z,0.70
2022-10-24T02:31:48.788Z,1.73
2022-10-24T02:34:53.183Z,0.93
2022-10-24T02:38:01.219Z,0.82
2022-10-24T02:41:09.285Z,1.15
2022-10-24T02:44:16.484Z,0.93
2022-10-24T02:47:22.396Z,1.10
2022-10-24T02:50:27.313Z,0.82
2022-10-24T02:53:30.478Z,1.00
2022-10-24T02:56:33.846Z,0.93
2022-10-24T02:59:36.557Z,0.90
2022-10-24T03:02:39.293Z,0.80
2022-10-24T03:05:43.451Z,0.90
2022-10-24T03:08:46.167Z,1.02
2022-10-24T03:11:49.132Z,1.58
2022-10-24T03:14:52.026Z,1.48
2022-10-24T03:17:55.494Z,1.13
2022-10-24T03:21:00.027Z,1.00
2022-10-24T03:24:03.253Z,1.17
2022-10-24T03:27:06.061Z,1.30
2022-10-24T03:30:10.419Z,1.00
2022-10-24T03:33:13.889Z,1.23
2022-10-24T03:36:18.353Z,1.20
2022-10-24T03:39:21.163Z,1.30
2022-10-24T03:42:23.878Z,0.93
2022-10-24T03:45:26.678Z,1.02
2022-10-24T03:48:29.491Z,1.50
2022-10-24T03:51:47.490Z,1.10
2022-10-24T03:54:50.381Z,1.15
2022-10-24T03:57:53.512Z,1.30
2022-10-24T04:00:58.556Z,1.45
2022-10-24T04:04:01.867Z,0.93
2022-10-24T04:07:06.306Z,1.52
2022-10-24T04:10:09.993Z,1.10
2022-10-24T04:13:13.234Z,1.17
2022-10-24T04:16:17.966Z,1.40
2022-10-24T04:19:20.749Z,0.85
2022-10-24T04:22:24.911Z,1.58
2022-10-24T04:25:28.042Z,1.35
2022-10-24T04:28:30.997Z,1.35
2022-10-24T04:31:33.764Z,1.38
2022-10-24T04:34:36.918Z,1.73
2022-10-24T04:37:40.946Z,1.13
2022-10-24T04:40:47.246Z,1.30
2022-10-24T04:43:49.919Z,1.20
2022-10-24T04:46:52.529Z,1.67
2022-10-24T04:49:55.550Z,1.13
2022-10-24T04:52:59.465Z,1.08
2022-10-24T04:56:02.574Z,1.35
2022-10-24T04:59:05.577Z,1.10
2022-10-24T05:02:08.406Z,1.45
2022-10-24T05:05:11.443Z,1.65
2022-10-24T05:08:15.902Z,0.80
2022-10-24T05:11:18.551Z,1.02
2022-10-24T05:14:21.154Z,1.27
2022-10-24T05:17:23.990Z,1.55
2022-10-24T05:20:27.208Z,1.45
2022-10-24T05:23:31.249Z,1.17
2022-10-24T05:26:33.910Z,1.10
2022-10-24T05:29:37.173Z,1.23
2022-10-24T05:32:40.960Z,1.45
2022-10-24T05:35:44.084Z,1.10
2022-10-24T05:38:48.052Z,0.90
2022-10-24T05:41:54.586Z,1.05
2022-10-24T05:44:58.043Z,1.30
2022-10-24T05:48:00.692Z,1.17
2022-10-24T05:51:03.310Z,1.23
2022-10-24T05:54:07.461Z,1.23
2022-10-24T05:57:10.145Z,1.20
2022-10-24T06:00:15.430Z,1.63
2022-10-24T06:03:18.501Z,1.40
2022-10-24T06:06:21.110Z,1.05
2022-10-24T06:09:25.071Z,1.15
2022-10-24T06:12:28.053Z,1.58
2022-10-24T06:15:30.693Z,1.60
2022-10-24T06:18:33.932Z,1.20
2022-10-24T06:21:36.542Z,1.45
2022-10-24T06:24:40.557Z,1.20
2022-10-24T06:27:43.187Z,1.38
2022-10-24T06:30:48.134Z,1.55
2022-10-24T06:33:50.801Z,1.30
2022-10-24T06:36:53.616Z,1.48
2022-10-24T06:39:57.935Z,1.20
2022-10-24T06:43:00.992Z,1.45
2022-10-24T06:46:06.694Z,1.60
2022-10-24T06:49:09.928Z,1.33
2022-10-24T06:52:19.921Z,1.85
2022-10-24T06:55:29.811Z,1.08
2022-10-24T06:58:38.456Z,1.50
2022-10-24T07:01:51.031Z,1.75
2022-10-24T07:05:05.662Z,1.40
2022-10-24T07:08:12.071Z,2.88
2022-10-24T07:11:24.903Z,1.65
2022-10-24T07:14:33.972Z,1.52
2022-10-24T07:17:52.593Z,1.60
2022-10-24T07:21:08.439Z,1.23
2022-10-24T07:24:29.101Z,1.67
2022-10-24T07:27:47.710Z,1.45
2022-10-24T07:30:56.499Z,1.52
2022-10-24T07:34:11.902Z,1.42
2022-10-24T07:37:20.744Z,1.52
2022-10-24T07:40:39.549Z,1.15
2022-10-24T07:43:49.236Z,1.33
2022-10-24T07:46:59.281Z,1.98
2022-10-24T07:50:14.664Z,1.10
2022-10-24T07:53:23.979Z,1.23
2022-10-24T07:56:31.569Z,1.88
2022-10-24T07:59:43.717Z,1.80
2022-10-24T08:02:51.799Z,1.58
2022-10-24T08:06:02.659Z,1.45
2022-10-24T08:09:10.052Z,1.73
2022-10-24T08:12:28.767Z,1.08
2022-10-24T08:15:40.309Z,1.30
2022-10-24T08:18:46.775Z,1.42
2022-10-24T08:21:58.029Z,1.90
2022-10-24T08:25:09.347Z,1.17
2022-10-24T08:28:17.782Z,1.50
2022-10-24T08:31:30.725Z,1.45
2022-10-24T08:34:58.434Z,1.45
2022-10-24T08:38:26.581Z,1.20
2022-10-24T08:42:07.536Z,1.27
2022-10-24T08:45:32.889Z,1.65
2022-10-24T08:49:23.965Z,1.15
2022-10-24T08:53:02.565Z,1.10
2022-10-24T08:56:54.816Z,1.50
2022-10-24T09:00:26.793Z,1.08
2022-10-24T09:03:56.840Z,1.05
2022-10-24T09:07:26.544Z,1.23
2022-10-24T09:10:50.285Z,1.00
2022-10-24T09:14:23.804Z,0.90
2022-10-24T09:17:46.587Z,1.05
2022-10-24T09:25:09.244Z,1.13
2022-10-24T09:28:39.060Z,1.60
2022-10-24T09:32:14.511Z,1.27
2022-10-24T09:36:14.071Z,1.40
2022-10-24T09:39:48.399Z,1.15
2022-10-24T09:43:23.612Z,1.02
2022-10-24T09:46:52.922Z,1.20
2022-10-24T09:50:34.459Z,1.30
2022-10-24T10:05:38.637Z,1.00
2022-10-24T10:12:54.477Z,1.25
2022-10-24T10:16:19.139Z,0.80
2022-10-24T10:23:45.098Z,0.73
2022-10-24T10:27:00.143Z,1.00
2022-10-24T10:30:28.664Z,0.90
2022-10-24T10:33:53.248Z,1.00
2022-10-24T10:37:51.528Z,1.05
2022-10-24T10:41:30.403Z,1.10
2022-10-24T10:45:01.420Z,0.68
2022-10-24T10:56:04.821Z,0.82
2022-10-24T10:59:40.540Z,0.82
2022-10-24T11:03:22.916Z,0.98
2022-10-24T11:06:56.083Z,0.90
2022-10-24T11:10:33.850Z,0.90
2022-10-24T11:14:01.776Z,0.80
2022-10-24T11:17:29.798Z,0.82
2022-10-24T11:20:50.818Z,0.98
2022-10-24T11:24:36.555Z,0.90
2022-10-24T11:28:26.491Z,0.75
2022-10-24T11:35:37.860Z,0.82
2022-10-24T11:39:19.217Z,0.68
2022-10-24T11:42:40.505Z,0.80
2022-10-24T11:46:27.038Z,0.68
2022-10-24T11:49:56.934Z,0.80
2022-10-24T11:53:22.155Z,0.90
2022-10-24T11:56:48.886Z,0.52
2022-10-24T12:00:17.604Z,0.75
2022-10-24T12:03:56.839Z,0.45
2022-10-24T12:07:54.656Z,0.82
2022-10-24T12:11:44.810Z,0.70
2022-10-24T12:15:23.729Z,0.75
2022-10-24T12:25:47.281Z,0.80
2022-10-24T12:32:49.071Z,0.70
2022-10-24T12:36:16.081Z,0.60
2022-10-24T12:39:39.556Z,1.23
2022-10-24T12:43:42.346Z,0.82
2022-10-24T12:47:35.255Z,0.63
2022-10-24T12:51:00.213Z,0.55
2022-10-24T12:54:06.381Z,0.63
2022-10-24T12:57:28.592Z,0.57
2022-10-24T13:00:33.702Z,0.80
2022-10-24T13:04:11.473Z,0.70
2022-10-24T13:08:01.349Z,0.57
2022-10-24T13:11:15.478Z,0.60
2022-10-24T13:14:36.307Z,0.50
2022-10-24T13:17:46.998Z,1.13
2022-10-24T13:20:51.112Z,0.80
2022-10-24T13:24:10.237Z,0.80
2022-10-24T13:27:26.171Z,0.70
2022-10-24T13:30:29.033Z,0.98
2022-10-24T13:33:43.305Z,1.25
2022-10-24T13:36:49.068Z,1.00
2022-10-24T13:39:56.282Z,1.65
2022-10-24T13:43:06.899Z,0.82
2022-10-24T13:46:13.232Z,0.90
2022-10-24T13:49:20.445Z,0.82
2022-10-24T13:52:27.710Z,0.90
2022-10-24T13:55:36.595Z,0.60
2022-10-24T13:58:44.315Z,0.95
2022-10-24T14:01:47.290Z,0.90
2022-10-24T14:04:54.745Z,0.60
2022-10-24T14:08:00.400Z,0.75
2022-10-24T14:11:07.727Z,0.80
2022-10-24T14:14:27.250Z,0.70
2022-10-24T14:17:33.517Z,1.13
2022-10-24T14:20:38.010Z,0.63
2022-10-24T14:23:42.496Z,1.00
2022-10-24T14:26:47.978Z,0.80
2022-10-24T14:30:04.420Z,0.80
2022-10-24T14:33:18.550Z,0.70
2022-10-24T14:36:24.021Z,0.60
2022-10-24T14:39:26.825Z,0.85
2022-10-24T14:42:32.111Z,0.70
2022-10-24T14:45:34.865Z,1.00
2022-10-24T14:48:38.409Z,0.73
2022-10-24T14:51:41.862Z,0.80
2022-10-24T14:54:52.307Z,0.60
2022-10-24T14:57:57.011Z,0.70
2022-10-24T15:01:00.731Z,0.80
2022-10-24T15:04:05.505Z,0.60
2022-10-24T15:07:20.808Z,0.77
2022-10-24T15:10:32.788Z,0.80
2022-10-24T15:13:48.221Z,0.85
2022-10-24T15:17:06.130Z,0.90
2022-10-24T15:20:14.900Z,1.02
2022-10-24T15:23:22.560Z,0.80
2022-10-24T15:26:28.288Z,0.82
2022-10-24T15:29:32.296Z,0.60
2022-10-24T15:32:34.981Z,0.68
2022-10-24T15:35:41.459Z,0.73
2022-10-24T15:38:44.074Z,1.23
2022-10-24T15:41:47.055Z,0.70
2022-10-24T15:44:51.009Z,0.68
2022-10-24T15:47:54.393Z,1.00
2022-10-24T15:50:57.127Z,0.68
2022-10-24T15:53:59.705Z,0.65
2022-10-24T15:57:05.370Z,0.80
2022-10-24T16:00:10.724Z,0.70
2022-10-24T16:03:16.668Z,0.90
2022-10-24T16:06:20.288Z,0.70
2022-10-24T16:09:27.814Z,0.77
2022-10-24T16:12:30.677Z,0.70
2022-10-24T16:15:36.346Z,0.93
2022-10-24T16:18:39.152Z,0.90
2022-10-24T16:21:42.758Z,1.10
2022-10-24T16:24:45.780Z,0.65
2022-10-24T16:27:49.324Z,0.90
2022-10-24T16:30:53.887Z,1.00
2022-10-24T16:33:56.593Z,1.00
2022-10-24T16:36:59.597Z,0.88
2022-10-24T16:40:02.639Z,0.90
2022-10-24T16:43:05.343Z,0.68
2022-10-24T16:46:10.142Z,1.00
2022-10-24T16:49:12.825Z,1.30
2022-10-24T16:52:15.433Z,0.95
2022-10-24T16:55:18.240Z,1.80
2022-10-24T16:58:22.473Z,2.13
2022-10-24T17:01:27.799Z,1.20
2022-10-24T17:04:33.871Z,1.25
2022-10-24T17:07:39.085Z,1.05
2022-10-24T17:10:41.752Z,1.05
2022-10-24T17:13:44.643Z,1.10
2022-10-24T17:16:48.645Z,1.08
2022-10-24T17:19:51.287Z,1.00
2022-10-24T17:22:54.151Z,1.20
2022-10-24T17:25:59.060Z,1.20
2022-10-24T17:29:02.530Z,1.40
2022-10-24T17:32:07.619Z,1.08
2022-10-24T17:35:16.260Z,1.00
2022-10-24T17:38:35.005Z,0.98
2022-10-24T17:41:39.232Z,1.10
2022-10-24T17:44:42.656Z,1.15
2022-10-24T17:47:49.394Z,1.40
2022-10-24T17:50:53.259Z,0.98
2022-10-24T17:53:55.862Z,0.90
2022-10-24T17:56:58.506Z,1.13
2022-10-24T18:00:02.381Z,1.75
2022-10-24T18:03:08.402Z,1.27
2022-10-24T18:06:12.728Z,1.42
2022-10-24T18:09:15.387Z,1.60
2022-10-24T18:12:18.368Z,0.77
2022-10-24T18:15:21.074Z,0.82
2022-10-24T18:18:25.308Z,0.50
2022-10-24T18:21:28.457Z,0.55
2022-10-24T18:24:31.514Z,0.70
2022-10-24T18:27:34.762Z,0.50
2022-10-24T18:30:37.424Z,0.75
2022-10-24T18:33:42.628Z,0.73
2022-10-24T18:36:45.322Z,1.20
2022-10-24T18:39:48.633Z,1.05
2022-10-24T18:42:54.108Z,0.80
2022-10-24T18:45:57.475Z,0.70
2022-10-24T18:49:02.237Z,0.75
2022-10-24T18:52:17.367Z,0.70
2022-10-24T18:55:22.375Z,0.70
2022-10-24T18:58:25.471Z,0.95
2022-10-24T19:01:36.441Z,1.30
2022-10-24T19:04:43.888Z,1.23
2022-10-24T19:07:48.250Z,1.23
2022-10-24T19:10:54.399Z,1.60
2022-10-24T19:13:57.293Z,1.00
2022-10-24T19:17:02.976Z,0.90
2022-10-24T19:20:08.954Z,0.50
2022-10-24T19:23:12.716Z,0.45
2022-10-24T19:26:15.566Z,0.32
2022-10-24T19:29:18.594Z,0.50
2022-10-24T19:32:21.245Z,0.55
2022-10-24T19:35:25.221Z,0.55
2022-10-24T19:38:27.856Z,3.83
2022-10-24T19:41:30.573Z,3.70
2022-10-24T19:44:33.538Z,1.90
2022-10-24T19:47:36.557Z,3.20
2022-10-24T19:50:41.899Z,1.63
2022-10-24T19:53:47.776Z,0.80
2022-10-24T19:56:56.389Z,0.70
2022-10-24T20:00:00.447Z,0.80
2022-10-24T20:03:04.321Z,0.88
2022-10-24T20:06:10.731Z,0.80
2022-10-24T20:09:14.327Z,0.35
2022-10-24T20:12:17.839Z,0.50
2022-10-24T20:15:32.136Z,0.50
2022-10-24T20:18:50.852Z,1.27
2022-10-24T20:21:58.963Z,0.98
2022-10-24T20:25:05.961Z,0.47
2022-10-24T20:28:10.123Z,1.05
2022-10-24T20:31:21.441Z,0.60
2022-10-24T20:34:26.763Z,0.73
2022-10-24T20:37:30.907Z,0.57
2022-10-24T20:40:33.950Z,0.50
2022-10-24T20:43:36.618Z,0.60
2022-10-24T20:46:39.290Z,0.60
2022-10-24T20:49:41.968Z,0.45
2022-10-24T20:52:46.299Z,0.40
2022-10-24T20:56:06.033Z,0.30
2022-10-24T20:59:08.661Z,0.30
2022-10-24T21:02:26.382Z,0.38
2022-10-24T21:05:29.181Z,0.35
2022-10-24T21:08:33.441Z,0.40
2022-10-24T21:11:36.465Z,0.30
2022-10-24T21:14:39.093Z,0.40
2022-10-24T21:17:41.721Z,0.30
2022-10-24T21:20:44.338Z,0.30
2022-10-24T21:23:51.552Z,0.40
2022-10-24T21:26:54.806Z,0.15
2022-10-24T21:29:57.462Z,0.20
2022-10-24T21:33:01.250Z,0.30
2022-10-24T21:36:07.961Z,0.50
2022-10-24T21:39:14.810Z,0.40
2022-10-24T21:42:17.468Z,0.68
2022-10-24T21:45:20.106Z,0.25
2022-10-24T21:48:24.068Z,0.20
2022-10-24T21:51:29.256Z,0.30
2022-10-24T21:54:33.454Z,0.20
2022-10-24T21:57:36.094Z,0.45
2022-10-24T22:00:40.376Z,0.50
2022-10-24T22:03:43.655Z,0.57
2022-10-24T22:06:47.164Z,0.43
2022-10-24T22:09:51.702Z,0.43
2022-10-24T22:12:54.344Z,0.40
2022-10-24T22:15:57.417Z,0.20
2022-10-24T22:19:01.298Z,0.38
2022-10-24T22:22:03.958Z,0.40
2022-10-24T22:25:08.870Z,0.35
2022-10-24T22:28:12.276Z,0.47
2022-10-24T22:31:15.695Z,0.52
2022-10-24T22:34:20.910Z,0.20
2022-10-24T22:37:28.546Z,0.30
2022-10-24T22:40:33.302Z,0.40
2022-10-24T22:43:36.822Z,0.82
2022-10-24T22:46:59.502Z,0.90
2022-10-24T22:50:13.144Z,0.47
2022-10-24T22:53:18.504Z,0.43
2022-10-24T22:56:27.517Z,0.40
2022-10-24T22:59:30.759Z,0.40
2022-10-24T23:02:36.531Z,0.43
2022-10-24T23:05:48.515Z,0.70
2022-10-24T23:08:51.173Z,0.40
2022-10-24T23:11:56.152Z,0.40
2022-10-24T23:15:00.132Z,0.38
2022-10-24T23:18:03.237Z,0.28
2022-10-24T23:21:15.906Z,0.30
2022-10-24T23:24:19.308Z,0.40
2022-10-24T23:27:32.585Z,0.50
2022-10-24T23:30:35.709Z,0.40
2022-10-24T23:33:39.033Z,0.43
2022-10-24T23:36:44.886Z,0.30
2022-10-24T23:39:48.098Z,0.40
2022-10-24T23:42:53.017Z,0.50
2022-10-24T23:46:00.151Z,0.40
2022-10-24T23:49:18.842Z,0.60
2022-10-24T23:52:27.982Z,0.40
2022-10-24T23:55:33.782Z,0.60
2022-10-24T23:58:37.768Z,0.60
